createdAt,value
2022-12-03T00:00:43.916Z,37.55
2022-12-03T00:01:45.650Z,36.95
2022-12-03T00:02:47.517Z,36.75
2022-12-03T00:03:49.504Z,42.15
2022-12-03T00:04:51.690Z,38.70
2022-12-03T00:05:53.628Z,41.40
2022-12-03T00:06:55.324Z,38.55
2022-12-03T00:07:57.164Z,35.05
2022-12-03T00:08:58.968Z,37.95
2022-12-03T00:10:00.736Z,43.43
2022-12-03T00:11:02.497Z,41.75
2022-12-03T00:12:04.334Z,32.90
2022-12-03T00:13:06.079Z,36.80
2022-12-03T00:14:07.797Z,36.22
2022-12-03T00:15:10.447Z,37.88
2022-12-03T00:16:12.386Z,42.72
2022-12-03T00:17:15.607Z,30.50
2022-12-03T00:18:17.371Z,33.38
2022-12-03T00:19:19.129Z,38.13
2022-12-03T00:20:23.623Z,34.87
2022-12-03T00:21:25.403Z,38.65
2022-12-03T00:22:27.186Z,36.80
2022-12-03T00:23:28.961Z,38.20
2022-12-03T00:24:30.689Z,39.13
2022-12-03T00:25:32.481Z,35.33
2022-12-03T00:26:34.237Z,36.90
2022-12-03T00:27:35.951Z,36.63
2022-12-03T00:28:37.711Z,33.42
2022-12-03T00:29:39.435Z,43.67
2022-12-03T00:30:41.269Z,34.33
2022-12-03T00:31:45.462Z,38.33
2022-12-03T00:32:47.491Z,35.83
2022-12-03T00:33:50.335Z,39.72
2022-12-03T00:34:52.486Z,31.58
2022-12-03T00:35:54.469Z,38.20
2022-12-03T00:36:56.191Z,34.15
2022-12-03T00:37:57.913Z,35.95
2022-12-03T00:38:59.634Z,34.33
2022-12-03T00:40:02.667Z,35.80
2022-12-03T00:41:04.582Z,33.20
2022-12-03T00:42:06.280Z,39.75
2022-12-03T00:43:08.038Z,35.95
2022-12-03T00:44:10.346Z,33.47
2022-12-03T00:45:12.436Z,37.15
2022-12-03T00:46:18.294Z,39.45
2022-12-03T00:47:22.940Z,38.13
2022-12-03T00:48:24.764Z,36.78
2022-12-03T00:49:26.499Z,34.40
2022-12-03T00:50:28.449Z,35.55
2022-12-03T00:51:30.179Z,33.23
2022-12-03T00:52:31.951Z,37.42
2022-12-03T00:53:33.684Z,41.45
2022-12-03T00:54:35.425Z,45.42
2022-12-03T00:55:37.152Z,36.65
2022-12-03T00:56:38.874Z,33.30
2022-12-03T00:57:40.820Z,37.10
2022-12-03T00:58:42.584Z,40.25
2022-12-03T00:59:44.334Z,35.22
2022-12-03T01:00:46.068Z,36.78
2022-12-03T01:01:47.900Z,35.70
2022-12-03T01:02:49.733Z,38.80
2022-12-03T01:03:51.499Z,34.60
2022-12-03T01:04:53.589Z,37.95
2022-12-03T01:05:55.592Z,36.05
2022-12-03T01:06:57.338Z,41.22
2022-12-03T01:07:59.156Z,39.00
2022-12-03T01:09:00.958Z,38.45
2022-12-03T01:10:04.884Z,37.08
2022-12-03T01:11:26.636Z,38.67
2022-12-03T01:12:28.357Z,37.23
2022-12-03T01:13:30.069Z,38.47
2022-12-03T01:14:31.832Z,36.72
2022-12-03T01:15:33.674Z,40.80
2022-12-03T01:16:35.996Z,38.28
2022-12-03T01:17:38.441Z,37.70
2022-12-03T01:18:40.202Z,37.50
2022-12-03T01:19:47.859Z,36.08
2022-12-03T01:20:50.051Z,34.00
2022-12-03T01:21:52.228Z,39.28
2022-12-03T01:22:54.144Z,38.60
2022-12-03T01:23:56.192Z,38.13
2022-12-03T01:24:57.939Z,42.63
2022-12-03T01:25:59.661Z,35.20
2022-12-03T01:27:01.368Z,41.65
2022-12-03T01:28:03.255Z,34.42
2022-12-03T01:29:05.258Z,32.75
2022-12-03T01:30:07.827Z,32.10
2022-12-03T01:31:28.484Z,36.00
2022-12-03T01:32:30.305Z,37.08
2022-12-03T01:33:32.024Z,37.87
2022-12-03T01:34:33.897Z,38.60
2022-12-03T01:35:35.624Z,39.72
2022-12-03T01:36:37.452Z,40.55
2022-12-03T01:37:39.235Z,35.65
2022-12-03T01:38:40.987Z,36.00
2022-12-03T01:39:43.018Z,34.22
2022-12-03T01:40:44.782Z,37.47
2022-12-03T01:41:48.855Z,34.08
2022-12-03T01:42:50.680Z,32.42
2022-12-03T01:43:53.527Z,39.37
2022-12-03T01:44:58.429Z,35.40
2022-12-03T01:46:01.131Z,37.83
2022-12-03T01:47:06.257Z,35.85
2022-12-03T01:48:11.828Z,35.35
2022-12-03T01:49:24.427Z,36.60
2022-12-03T01:50:33.823Z,34.50
2022-12-03T01:51:35.667Z,38.85
2022-12-03T01:52:39.248Z,38.42
2022-12-03T01:53:41.983Z,34.38
2022-12-03T01:54:51.115Z,32.87
2022-12-03T01:55:53.139Z,34.17
2022-12-03T01:56:55.610Z,41.53
2022-12-03T01:58:00.582Z,42.40
2022-12-03T01:59:02.344Z,41.47
2022-12-03T02:00:05.752Z,36.15
2022-12-03T02:01:13.040Z,39.55
2022-12-03T02:02:23.262Z,36.15
2022-12-03T02:03:26.171Z,38.88
2022-12-03T02:04:27.974Z,38.15
2022-12-03T02:05:32.395Z,36.73
2022-12-03T02:06:34.509Z,35.17
2022-12-03T02:07:36.323Z,41.20
2022-12-03T02:08:40.715Z,41.45
2022-12-03T02:09:42.450Z,38.78
2022-12-03T02:10:44.261Z,39.10
2022-12-03T02:11:49.530Z,36.65
2022-12-03T02:12:59.652Z,35.83
2022-12-03T02:14:08.955Z,38.03
2022-12-03T02:15:12.294Z,38.20
2022-12-03T02:16:14.289Z,37.40
2022-12-03T02:17:16.852Z,34.58
2022-12-03T02:18:19.011Z,37.40
2022-12-03T02:19:25.343Z,34.05
2022-12-03T02:20:27.567Z,38.50
2022-12-03T02:21:48.946Z,39.83
2022-12-03T02:23:35.847Z,35.53
2022-12-03T02:25:16.156Z,40.50
2022-12-03T02:26:18.121Z,38.42
2022-12-03T02:27:20.128Z,34.55
2022-12-03T02:28:22.029Z,29.57
2022-12-03T02:29:24.096Z,34.17
2022-12-03T02:30:27.541Z,39.83
2022-12-03T02:31:29.488Z,37.85
2022-12-03T02:32:31.358Z,42.35
2022-12-03T02:33:33.508Z,36.88
2022-12-03T02:34:35.296Z,36.90
2022-12-03T02:35:38.336Z,33.95
2022-12-03T02:36:40.227Z,35.70
2022-12-03T02:37:43.941Z,33.85
2022-12-03T02:38:48.165Z,41.33
2022-12-03T02:39:55.921Z,34.15
2022-12-03T02:41:01.040Z,37.22
2022-12-03T02:42:21.968Z,34.67
2022-12-03T02:43:24.470Z,35.75
2022-12-03T02:44:26.236Z,31.67
2022-12-03T02:45:32.277Z,34.10
2022-12-03T02:46:34.966Z,33.72
2022-12-03T02:47:51.538Z,37.10
2022-12-03T02:48:53.356Z,36.35
2022-12-03T02:49:55.874Z,36.37
2022-12-03T02:51:00.727Z,36.08
2022-12-03T02:52:02.762Z,36.88
2022-12-03T02:53:09.151Z,38.50
2022-12-03T02:54:10.952Z,32.03
2022-12-03T02:55:17.444Z,33.15
2022-12-03T02:56:23.134Z,35.80
2022-12-03T02:57:24.942Z,32.60
2022-12-03T02:58:28.950Z,36.80
2022-12-03T02:59:30.699Z,36.88
2022-12-03T03:00:33.766Z,35.03
2022-12-03T03:01:35.652Z,33.67
2022-12-03T03:02:39.093Z,35.28
2022-12-03T03:03:41.255Z,37.25
2022-12-03T03:04:43.782Z,36.35
2022-12-03T03:05:46.764Z,37.83
2022-12-03T03:06:48.553Z,36.67
2022-12-03T03:07:53.657Z,35.13
2022-12-03T03:08:55.824Z,33.72
2022-12-03T03:09:58.882Z,33.45
2022-12-03T03:11:01.870Z,34.17
2022-12-03T03:12:03.726Z,41.08
2022-12-03T03:13:10.599Z,36.53
2022-12-03T03:14:12.574Z,35.85
2022-12-03T03:15:14.936Z,40.17
2022-12-03T03:16:16.946Z,38.70
2022-12-03T03:17:18.747Z,33.72
2022-12-03T03:18:20.575Z,35.70
2022-12-03T03:19:24.654Z,40.65
2022-12-03T03:20:26.399Z,36.35
2022-12-03T03:21:28.390Z,34.77
2022-12-03T03:22:39.188Z,36.35
2022-12-03T03:23:40.956Z,36.28
2022-12-03T03:24:42.910Z,38.42
2022-12-03T03:25:58.480Z,34.65
2022-12-03T03:27:00.258Z,35.40
2022-12-03T03:28:02.135Z,35.55
2022-12-03T03:29:04.071Z,35.83
2022-12-03T03:30:07.092Z,36.45
2022-12-03T03:31:11.558Z,35.97
2022-12-03T03:32:13.481Z,34.10
2022-12-03T03:33:16.075Z,36.10
2022-12-03T03:34:18.140Z,38.65
2022-12-03T03:35:19.952Z,36.33
2022-12-03T03:36:22.911Z,35.80
2022-12-03T03:37:25.414Z,32.35
2022-12-03T03:38:29.181Z,31.10
2022-12-03T03:39:30.910Z,36.80
2022-12-03T03:40:32.861Z,33.63
2022-12-03T03:41:35.659Z,36.22
2022-12-03T03:42:38.462Z,34.13
2022-12-03T03:43:42.228Z,34.33
2022-12-03T03:44:44.285Z,34.42
2022-12-03T03:45:46.846Z,37.25
2022-12-03T03:46:48.864Z,33.30
2022-12-03T03:47:50.676Z,37.42
2022-12-03T03:48:52.677Z,35.50
2022-12-03T03:49:54.559Z,37.65
2022-12-03T03:50:56.767Z,31.83
2022-12-03T03:51:58.833Z,33.90
2022-12-03T03:53:02.569Z,37.00
2022-12-03T03:54:05.911Z,32.88
2022-12-03T03:55:08.985Z,33.45
2022-12-03T03:56:11.554Z,35.03
2022-12-03T03:57:13.444Z,33.35
2022-12-03T03:58:15.364Z,32.28
2022-12-03T03:59:17.123Z,37.33
2022-12-03T04:00:19.251Z,34.03
2022-12-03T04:01:21.166Z,31.02
2022-12-03T04:02:25.120Z,34.38
2022-12-03T04:03:28.110Z,39.93
2022-12-03T04:04:36.593Z,33.50
2022-12-03T04:05:39.096Z,32.25
2022-12-03T04:06:40.828Z,32.63
2022-12-03T04:07:42.753Z,32.17
2022-12-03T04:08:44.614Z,33.83
2022-12-03T04:09:46.495Z,29.73
2022-12-03T04:11:06.745Z,29.60
2022-12-03T04:12:27.821Z,32.03
2022-12-03T04:13:29.560Z,32.45
2022-12-03T04:14:31.287Z,29.90
2022-12-03T04:15:33.098Z,32.47
2022-12-03T04:16:34.929Z,35.05
2022-12-03T04:17:36.982Z,33.15
2022-12-03T04:18:44.636Z,33.33
2022-12-03T04:19:46.420Z,33.75
2022-12-03T04:20:48.235Z,32.38
2022-12-03T04:22:08.378Z,30.52
2022-12-03T04:23:10.390Z,31.00
2022-12-03T04:24:12.229Z,33.78
2022-12-03T04:25:34.196Z,28.97
2022-12-03T04:26:55.991Z,36.35
2022-12-03T04:28:16.283Z,31.95
2022-12-03T04:29:19.001Z,35.03
2022-12-03T04:30:20.717Z,30.08
2022-12-03T04:31:41.102Z,32.38
2022-12-03T04:33:01.632Z,32.92
2022-12-03T04:34:22.215Z,35.17
2022-12-03T04:35:42.549Z,27.75
2022-12-03T04:36:44.384Z,29.75
2022-12-03T04:37:46.161Z,30.53
2022-12-03T04:38:47.864Z,32.05
2022-12-03T04:39:49.573Z,30.10
2022-12-03T04:41:06.645Z,30.35
2022-12-03T04:42:08.431Z,29.08
2022-12-03T04:43:10.164Z,30.27
2022-12-03T04:44:30.696Z,30.38
2022-12-03T04:45:32.528Z,31.42
2022-12-03T04:46:34.316Z,28.50
2022-12-03T04:47:39.894Z,31.63
2022-12-03T04:48:41.847Z,33.47
2022-12-03T04:49:53.812Z,28.80
2022-12-03T04:50:55.570Z,29.20
2022-12-03T04:51:57.366Z,29.75
2022-12-03T04:52:59.109Z,29.48
2022-12-03T04:54:00.946Z,32.10
2022-12-03T04:55:02.767Z,31.88
2022-12-03T04:56:04.632Z,29.73
2022-12-03T04:57:07.041Z,32.20
2022-12-03T04:58:09.154Z,26.63
2022-12-03T04:59:15.742Z,36.00
2022-12-03T05:00:18.307Z,31.33
2022-12-03T05:01:20.102Z,26.85
2022-12-03T05:02:21.886Z,31.25
2022-12-03T05:03:23.707Z,31.88
2022-12-03T05:04:25.661Z,35.38
2022-12-03T05:05:27.487Z,29.58
2022-12-03T05:06:29.207Z,30.15
2022-12-03T05:07:30.952Z,25.48
2022-12-03T05:08:32.722Z,29.45
2022-12-03T05:09:34.631Z,34.03
2022-12-03T05:10:36.371Z,30.90
2022-12-03T05:11:38.624Z,30.88
2022-12-03T05:12:40.392Z,29.23
2022-12-03T05:13:43.191Z,29.25
2022-12-03T05:14:45.072Z,34.83
2022-12-03T05:15:46.855Z,28.55
2022-12-03T05:16:48.675Z,33.58
2022-12-03T05:17:50.441Z,30.00
2022-12-03T05:18:52.228Z,26.85
2022-12-03T05:20:12.471Z,27.97
2022-12-03T05:21:14.238Z,25.90
2022-12-03T05:22:15.976Z,27.65
2022-12-03T05:23:17.689Z,29.30
2022-12-03T05:24:19.453Z,30.98
2022-12-03T05:25:21.181Z,33.58
2022-12-03T05:26:23.040Z,30.02
2022-12-03T05:27:24.792Z,31.25
2022-12-03T05:28:26.667Z,30.25
2022-12-03T05:29:28.408Z,30.52
2022-12-03T05:30:30.321Z,29.10
2022-12-03T05:31:32.164Z,31.38
2022-12-03T05:32:33.901Z,28.23
2022-12-03T05:33:40.854Z,28.05
2022-12-03T05:34:45.616Z,28.35
2022-12-03T05:35:47.679Z,25.98
2022-12-03T05:36:49.439Z,27.85
2022-12-03T05:37:51.188Z,28.15
2022-12-03T05:38:52.917Z,33.45
2022-12-03T05:39:54.631Z,25.85
2022-12-03T05:40:56.420Z,83.97
2022-12-03T05:42:16.700Z,35.90
2022-12-03T05:43:18.510Z,29.50
2022-12-03T05:44:20.581Z,33.35
2022-12-03T05:45:37.422Z,33.45
2022-12-03T05:46:39.211Z,41.83
2022-12-03T05:47:41.050Z,30.38
2022-12-03T05:48:42.822Z,38.03
2022-12-03T05:49:44.515Z,33.00
2022-12-03T05:50:46.929Z,35.47
2022-12-03T05:51:50.553Z,30.43
2022-12-03T05:52:56.813Z,33.88
2022-12-03T05:53:58.579Z,35.47
2022-12-03T05:55:00.330Z,35.53
2022-12-03T05:56:02.040Z,31.63
2022-12-03T05:57:03.853Z,32.13
2022-12-03T05:58:06.167Z,31.23
2022-12-03T05:59:07.937Z,27.80
2022-12-03T06:00:14.693Z,27.35
2022-12-03T06:01:16.621Z,27.75
2022-12-03T06:02:18.525Z,40.20
2022-12-03T06:03:20.514Z,32.05
2022-12-03T06:04:22.406Z,29.27
2022-12-03T06:05:24.831Z,29.65
2022-12-03T06:06:26.601Z,29.38
2022-12-03T06:07:28.350Z,33.65
2022-12-03T06:08:30.269Z,30.80
2022-12-03T06:09:32.017Z,33.28
2022-12-03T06:10:33.716Z,75.10
2022-12-03T06:11:37.110Z,43.53
2022-12-03T06:12:39.028Z,36.10
2022-12-03T06:13:40.755Z,31.63
2022-12-03T06:14:42.486Z,29.92
2022-12-03T06:15:44.404Z,33.13
2022-12-03T06:16:46.276Z,32.50
2022-12-03T06:17:48.182Z,35.28
2022-12-03T06:18:49.875Z,40.88
2022-12-03T06:19:51.838Z,38.72
2022-12-03T06:20:53.637Z,44.35
2022-12-03T06:21:55.566Z,52.40
2022-12-03T06:22:57.299Z,81.90
2022-12-03T06:23:59.966Z,73.60
2022-12-03T06:25:06.623Z,54.70
2022-12-03T06:26:09.017Z,62.70
2022-12-03T06:27:10.816Z,43.17
2022-12-03T06:28:12.568Z,31.27
2022-12-03T06:29:14.310Z,38.30
2022-12-03T06:30:16.349Z,71.65
2022-12-03T06:31:18.124Z,33.15
2022-12-03T06:32:19.896Z,43.42
2022-12-03T06:33:21.604Z,42.27
2022-12-03T06:34:23.466Z,69.50
2022-12-03T06:35:25.175Z,48.05
2022-12-03T06:36:27.720Z,125.32
2022-12-03T06:37:29.465Z,164.77
2022-12-03T06:38:31.200Z,194.77
2022-12-03T06:39:33.136Z,151.65
2022-12-03T06:40:34.849Z,116.05
2022-12-03T06:41:36.636Z,123.65
2022-12-03T06:42:38.367Z,37.17
2022-12-03T06:43:40.072Z,79.00
2022-12-03T06:44:41.799Z,53.88
2022-12-03T06:45:47.729Z,54.70
2022-12-03T06:46:49.912Z,85.95
2022-12-03T06:47:51.711Z,53.88
2022-12-03T06:48:53.480Z,47.60
2022-12-03T06:49:55.196Z,54.70
2022-12-03T06:50:56.895Z,45.53
2022-12-03T06:51:58.619Z,37.72
2022-12-03T06:53:00.329Z,36.22
2022-12-03T06:54:02.833Z,35.27
2022-12-03T06:55:05.027Z,36.95
2022-12-03T06:56:07.084Z,35.17
2022-12-03T06:57:08.804Z,35.00
2022-12-03T06:58:10.562Z,34.13
2022-12-03T06:59:12.309Z,30.77
2022-12-03T07:00:14.457Z,34.95
2022-12-03T07:01:16.191Z,33.17
2022-12-03T07:02:18.019Z,35.58
2022-12-03T07:03:19.829Z,32.40
2022-12-03T07:04:21.611Z,28.40
2022-12-03T07:05:23.346Z,32.03
2022-12-03T07:06:25.073Z,34.35
2022-12-03T07:07:27.077Z,31.13
2022-12-03T07:08:29.041Z,29.40
2022-12-03T07:09:30.815Z,31.60
2022-12-03T07:10:32.555Z,28.75
2022-12-03T07:11:40.299Z,30.45
2022-12-03T07:12:42.085Z,32.92
2022-12-03T07:13:43.897Z,34.65
2022-12-03T07:14:45.647Z,28.40
2022-12-03T07:15:47.404Z,32.38
2022-12-03T07:16:49.211Z,32.40
2022-12-03T07:17:51.132Z,32.25
2022-12-03T07:18:52.926Z,32.15
2022-12-03T07:19:54.630Z,31.88
2022-12-03T07:20:56.350Z,31.40
2022-12-03T07:21:58.108Z,32.83
2022-12-03T07:22:59.872Z,33.85
2022-12-03T07:24:01.676Z,33.30
2022-12-03T07:25:04.276Z,34.30
2022-12-03T07:26:06.054Z,29.20
2022-12-03T07:27:07.832Z,30.52
2022-12-03T07:28:09.538Z,28.98
2022-12-03T07:29:11.273Z,34.72
2022-12-03T07:30:15.387Z,27.85
2022-12-03T07:31:17.284Z,24.27
2022-12-03T07:32:19.064Z,29.73
2022-12-03T07:33:20.803Z,29.27
2022-12-03T07:34:22.657Z,32.63
2022-12-03T07:35:24.383Z,30.10
2022-12-03T07:36:26.165Z,31.98
2022-12-03T07:37:27.923Z,28.15
2022-12-03T07:38:29.686Z,29.63
2022-12-03T07:39:31.427Z,26.45
2022-12-03T07:40:33.187Z,32.53
2022-12-03T07:41:34.989Z,28.33
2022-12-03T07:42:36.706Z,32.58
2022-12-03T07:43:38.450Z,34.10
2022-12-03T07:44:40.160Z,32.20
2022-12-03T07:45:41.854Z,29.33
2022-12-03T07:46:43.850Z,33.88
2022-12-03T07:47:45.620Z,32.38
2022-12-03T07:48:47.356Z,30.00
2022-12-03T07:49:49.175Z,29.27
2022-12-03T07:50:51.667Z,33.22
2022-12-03T07:51:54.352Z,27.02
2022-12-03T07:52:56.447Z,30.00
2022-12-03T07:53:58.230Z,33.75
2022-12-03T07:54:59.972Z,28.17
2022-12-03T07:56:03.493Z,30.03
2022-12-03T07:57:05.227Z,32.17
2022-12-03T07:58:07.310Z,36.67
2022-12-03T07:59:09.038Z,85.63
2022-12-03T08:00:11.777Z,77.68
2022-12-03T08:01:13.681Z,65.47
2022-12-03T08:02:20.994Z,62.80
2022-12-03T08:03:23.659Z,42.25
2022-12-03T08:04:25.435Z,39.03
2022-12-03T08:05:27.383Z,32.75
2022-12-03T08:06:29.133Z,34.87
2022-12-03T08:07:30.871Z,34.65
2022-12-03T08:08:32.655Z,33.72
2022-12-03T08:09:34.390Z,31.45
2022-12-03T08:10:36.249Z,31.23
2022-12-03T08:11:38.008Z,41.15
2022-12-03T08:12:40.394Z,34.90
2022-12-03T08:13:42.298Z,32.50
2022-12-03T08:14:44.366Z,31.02
2022-12-03T08:15:46.515Z,33.42
2022-12-03T08:16:48.499Z,29.20
2022-12-03T08:18:00.758Z,37.10
2022-12-03T08:19:05.603Z,31.58
2022-12-03T08:20:28.836Z,40.42
2022-12-03T08:21:36.241Z,33.38
2022-12-03T08:22:37.997Z,32.75
2022-12-03T08:23:40.516Z,30.80
2022-12-03T08:24:43.660Z,29.13
2022-12-03T08:25:46.574Z,29.15
2022-12-03T08:26:49.709Z,25.08
2022-12-03T08:27:53.957Z,33.27
2022-12-03T08:28:55.655Z,29.42
2022-12-03T08:30:03.449Z,32.10
2022-12-03T08:31:32.939Z,36.33
2022-12-03T08:32:35.143Z,42.15
2022-12-03T08:33:37.413Z,39.97
2022-12-03T08:34:41.482Z,33.15
2022-12-03T08:35:49.754Z,32.40
2022-12-03T08:36:56.294Z,37.22
2022-12-03T08:38:01.871Z,30.65
2022-12-03T08:39:21.914Z,35.17
2022-12-03T08:40:34.636Z,31.55
2022-12-03T08:41:54.892Z,30.92
2022-12-03T08:42:56.626Z,39.13
2022-12-03T08:43:58.853Z,37.03
2022-12-03T08:45:40.968Z,37.15
2022-12-03T08:46:42.798Z,32.90
2022-12-03T08:47:44.628Z,34.05
2022-12-03T08:48:49.188Z,31.40
2022-12-03T08:49:54.051Z,33.05
2022-12-03T08:51:16.812Z,31.30
2022-12-03T08:52:26.661Z,30.10
2022-12-03T08:53:37.315Z,30.52
2022-12-03T08:54:39.037Z,31.75
2022-12-03T08:55:51.609Z,33.45
2022-12-03T08:56:53.724Z,36.70
2022-12-03T08:57:55.448Z,29.98
2022-12-03T08:59:00.655Z,33.55
2022-12-03T09:00:24.003Z,33.47
2022-12-03T09:01:45.444Z,36.03
2022-12-03T09:02:53.488Z,34.40
2022-12-03T09:03:56.911Z,29.63
2022-12-03T09:05:02.704Z,35.25
2022-12-03T09:06:05.444Z,36.05
2022-12-03T09:07:07.137Z,30.60
2022-12-03T09:08:08.916Z,38.10
2022-12-03T09:09:10.758Z,37.33
2022-12-03T09:10:12.895Z,33.67
2022-12-03T09:11:15.149Z,35.10
2022-12-03T09:12:16.862Z,35.75
2022-12-03T09:13:18.571Z,34.87
2022-12-03T09:14:23.849Z,36.03
2022-12-03T09:15:25.616Z,30.95
2022-12-03T09:16:28.310Z,37.13
2022-12-03T09:17:30.105Z,34.75
2022-12-03T09:18:32.485Z,33.53
2022-12-03T09:19:34.192Z,37.72
2022-12-03T09:20:35.996Z,37.15
2022-12-03T09:21:37.710Z,35.58
2022-12-03T09:22:39.532Z,34.63
2022-12-03T09:23:41.225Z,35.93
2022-12-03T09:24:43.342Z,34.75
2022-12-03T09:25:45.149Z,36.05
2022-12-03T09:26:46.937Z,33.65
2022-12-03T09:27:48.921Z,31.17
2022-12-03T09:28:50.672Z,37.22
2022-12-03T09:29:52.406Z,32.22
2022-12-03T09:30:54.164Z,36.85
2022-12-03T09:31:56.206Z,31.25
2022-12-03T09:32:59.726Z,34.72
2022-12-03T09:34:02.902Z,33.30
2022-12-03T09:35:05.415Z,37.13
2022-12-03T09:36:07.237Z,33.40
2022-12-03T09:37:09.472Z,47.53
2022-12-03T09:38:11.203Z,38.03
2022-12-03T09:39:12.934Z,33.22
2022-12-03T09:40:15.426Z,36.55
2022-12-03T09:41:17.307Z,35.13
2022-12-03T09:42:19.277Z,42.58
2022-12-03T09:43:21.315Z,32.03
2022-12-03T09:44:23.275Z,35.70
2022-12-03T09:45:25.187Z,41.13
2022-12-03T09:46:27.016Z,32.47
2022-12-03T09:47:30.432Z,39.22
2022-12-03T09:48:32.245Z,37.80
2022-12-03T09:49:37.091Z,36.13
2022-12-03T09:50:41.941Z,38.65
2022-12-03T09:51:45.160Z,37.58
2022-12-03T09:52:49.698Z,37.97
2022-12-03T09:53:51.481Z,36.90
2022-12-03T09:54:54.039Z,40.90
2022-12-03T09:55:59.490Z,38.50
2022-12-03T09:57:03.533Z,38.22
2022-12-03T09:58:12.205Z,39.60
2022-12-03T09:59:15.348Z,38.25
2022-12-03T10:00:23.855Z,34.38
2022-12-03T10:01:29.967Z,39.78
2022-12-03T10:02:32.164Z,38.05
2022-12-03T10:03:33.897Z,47.42
2022-12-03T10:04:35.718Z,36.58
2022-12-03T10:05:37.510Z,39.87
2022-12-03T10:06:45.332Z,41.55
2022-12-03T10:07:49.440Z,42.17
2022-12-03T10:08:54.796Z,41.50
2022-12-03T10:09:56.948Z,46.97
2022-12-03T10:10:59.285Z,42.13
2022-12-03T10:12:01.438Z,37.85
2022-12-03T10:13:04.305Z,38.70
2022-12-03T10:14:06.551Z,44.72
2022-12-03T10:15:13.617Z,45.40
2022-12-03T10:16:18.326Z,37.70
2022-12-03T10:17:20.063Z,44.22
2022-12-03T10:18:24.945Z,43.33
2022-12-03T10:19:30.098Z,46.03
2022-12-03T10:20:31.969Z,45.03
2022-12-03T10:21:39.029Z,42.85
2022-12-03T10:22:41.077Z,49.60
2022-12-03T10:23:43.684Z,42.85
2022-12-03T10:24:45.446Z,45.22
2022-12-03T10:26:13.568Z,41.70
2022-12-03T10:27:30.419Z,47.90
2022-12-03T10:28:35.394Z,44.65
2022-12-03T10:29:37.139Z,37.38
2022-12-03T10:30:48.465Z,37.08
2022-12-03T10:32:07.890Z,40.75
2022-12-03T10:33:19.156Z,50.47
2022-12-03T10:34:38.220Z,48.92
2022-12-03T10:35:41.263Z,39.08
2022-12-03T10:36:43.242Z,44.50
2022-12-03T10:37:57.158Z,42.80
2022-12-03T10:39:14.908Z,40.63
2022-12-03T10:40:25.599Z,41.38
2022-12-03T10:41:28.777Z,41.05
2022-12-03T10:42:33.368Z,36.15
2022-12-03T10:43:35.108Z,41.03
2022-12-03T10:44:36.855Z,36.78
2022-12-03T10:45:38.705Z,43.97
2022-12-03T10:46:41.136Z,35.78
2022-12-03T10:47:44.170Z,37.00
2022-12-03T10:48:46.037Z,45.22
2022-12-03T10:50:03.297Z,35.70
2022-12-03T10:51:07.033Z,44.65
2022-12-03T10:52:25.936Z,40.85
2022-12-03T10:53:30.229Z,35.17
2022-12-03T10:54:35.221Z,38.10
2022-12-03T10:55:40.741Z,36.88
2022-12-03T10:56:42.696Z,42.60
2022-12-03T10:57:46.154Z,46.40
2022-12-03T10:58:48.137Z,45.63
2022-12-03T10:59:49.979Z,43.50
2022-12-03T11:00:55.123Z,40.90
2022-12-03T11:01:56.984Z,41.83
2022-12-03T11:02:58.830Z,42.60
2022-12-03T11:04:04.977Z,40.95
2022-12-03T11:05:07.206Z,45.63
2022-12-03T11:06:17.980Z,41.45
2022-12-03T11:07:21.427Z,40.28
2022-12-03T11:08:24.432Z,46.80
2022-12-03T11:09:30.455Z,42.90
2022-12-03T11:10:32.556Z,42.70
2022-12-03T11:11:34.387Z,41.53
2022-12-03T11:12:36.129Z,42.30
2022-12-03T11:13:37.801Z,39.13
2022-12-03T11:14:52.157Z,38.65
2022-12-03T11:15:54.639Z,41.47
2022-12-03T11:16:56.440Z,38.80
2022-12-03T11:17:58.216Z,40.97
2022-12-03T11:19:01.139Z,46.53
2022-12-03T11:20:03.409Z,40.60
2022-12-03T11:21:13.468Z,42.25
2022-12-03T11:22:27.361Z,41.10
2022-12-03T11:23:47.145Z,39.65
2022-12-03T11:25:26.804Z,44.42
2022-12-03T11:27:09.049Z,40.25
2022-12-03T11:28:13.871Z,42.13
2022-12-03T11:29:15.658Z,39.92
2022-12-03T11:30:49.725Z,50.58
2022-12-03T11:31:51.515Z,34.72
2022-12-03T11:33:01.042Z,47.22
2022-12-03T11:34:29.315Z,44.13
2022-12-03T11:35:58.001Z,44.87
2022-12-03T11:37:11.915Z,32.58
2022-12-03T11:38:50.878Z,40.20
2022-12-03T11:40:23.137Z,36.15
2022-12-03T11:41:34.789Z,37.20
2022-12-03T11:42:40.705Z,48.30
2022-12-03T11:43:56.893Z,42.88
2022-12-03T11:45:05.262Z,41.83
2022-12-03T11:46:10.701Z,50.28
2022-12-03T11:47:15.974Z,40.13
2022-12-03T11:48:18.715Z,45.10
2022-12-03T11:49:20.439Z,48.15
2022-12-03T11:50:27.383Z,48.22
2022-12-03T11:51:30.631Z,41.30
2022-12-03T11:52:41.550Z,49.17
2022-12-03T11:53:44.451Z,42.75
2022-12-03T11:54:51.322Z,57.90
2022-12-03T11:56:06.598Z,49.97
2022-12-03T11:57:31.644Z,45.33
2022-12-03T11:58:33.946Z,49.03
2022-12-03T11:59:35.698Z,41.30
2022-12-03T12:00:37.393Z,47.28
2022-12-03T12:01:42.931Z,50.35
2022-12-03T12:02:44.723Z,47.40
2022-12-03T12:03:49.488Z,45.90
2022-12-03T12:04:51.347Z,43.80
2022-12-03T12:06:02.180Z,44.42
2022-12-03T12:07:04.183Z,49.63
2022-12-03T12:08:06.041Z,51.25
2022-12-03T12:09:08.285Z,49.45
2022-12-03T12:10:11.314Z,50.17
2022-12-03T12:11:26.591Z,48.40
2022-12-03T12:12:54.398Z,48.60
2022-12-03T12:14:06.463Z,52.85
2022-12-03T12:15:39.048Z,49.08
2022-12-03T12:16:51.812Z,53.55
2022-12-03T12:17:53.532Z,45.75
2022-12-03T12:18:56.349Z,49.10
2022-12-03T12:20:24.765Z,52.75
2022-12-03T12:21:43.052Z,50.60
2022-12-03T12:22:44.892Z,54.57
2022-12-03T12:23:46.618Z,46.78
2022-12-03T12:24:51.812Z,59.92
2022-12-03T12:25:54.459Z,46.78
2022-12-03T12:26:58.335Z,49.22
2022-12-03T12:28:00.124Z,53.83
2022-12-03T12:29:01.839Z,50.63
2022-12-03T12:30:06.900Z,56.10
2022-12-03T12:31:11.874Z,51.25
2022-12-03T12:32:18.521Z,49.30
2022-12-03T12:33:24.358Z,54.70
2022-12-03T12:34:26.122Z,49.33
2022-12-03T12:35:29.906Z,49.83
2022-12-03T12:36:33.888Z,48.67
2022-12-03T12:37:44.941Z,59.65
2022-12-03T12:38:48.847Z,53.13
2022-12-03T12:39:53.796Z,49.83
2022-12-03T12:40:55.761Z,51.40
2022-12-03T12:41:58.297Z,46.05
2022-12-03T12:43:15.355Z,45.88
2022-12-03T12:44:23.199Z,51.37
2022-12-03T12:45:27.698Z,52.72
2022-12-03T12:46:48.126Z,45.03
2022-12-03T12:48:28.737Z,52.28
2022-12-03T12:49:30.504Z,46.05
2022-12-03T12:50:34.904Z,50.05
2022-12-03T12:51:43.389Z,45.85
2022-12-03T12:52:58.806Z,51.53
2022-12-03T12:54:00.589Z,43.95
2022-12-03T12:55:06.487Z,46.20
2022-12-03T12:56:32.753Z,41.80
2022-12-03T12:57:34.479Z,47.80
2022-12-03T12:58:36.427Z,48.50
2022-12-03T12:59:38.263Z,51.70
2022-12-03T13:00:40.288Z,53.50
2022-12-03T13:01:43.800Z,48.60
2022-12-03T13:02:59.818Z,48.50
2022-12-03T13:04:03.208Z,47.22
2022-12-03T13:05:05.301Z,52.15
2022-12-03T13:06:12.631Z,45.30
2022-12-03T13:07:14.418Z,48.80
2022-12-03T13:08:21.371Z,48.00
2022-12-03T13:09:25.623Z,52.60
2022-12-03T13:10:39.268Z,52.08
2022-12-03T13:11:45.703Z,44.83
2022-12-03T13:12:47.562Z,61.28
2022-12-03T13:13:49.320Z,62.47
2022-12-03T13:14:52.255Z,57.00
2022-12-03T13:16:01.743Z,58.28
2022-12-03T13:17:24.520Z,56.13
2022-12-03T13:18:27.709Z,51.00
2022-12-03T13:19:39.569Z,54.20
2022-12-03T13:20:48.262Z,54.05
2022-12-03T13:21:51.674Z,56.65
2022-12-03T13:22:53.427Z,53.67
2022-12-03T13:23:57.280Z,57.53
2022-12-03T13:25:44.025Z,59.75
2022-12-03T13:26:45.068Z,53.53
2022-12-03T13:27:46.878Z,53.78
2022-12-03T13:28:49.497Z,52.00
2022-12-03T13:29:55.175Z,52.07
2022-12-03T13:31:19.946Z,48.40
2022-12-03T13:32:27.154Z,46.35
2022-12-03T13:33:30.159Z,51.08
2022-12-03T13:34:33.801Z,52.22
2022-12-03T13:35:36.316Z,55.00
2022-12-03T13:36:46.878Z,51.58
2022-12-03T13:37:50.156Z,45.13
2022-12-03T13:38:53.617Z,47.53
2022-12-03T13:39:57.652Z,46.65
2022-12-03T13:41:01.931Z,50.77
2022-12-03T13:42:31.463Z,52.83
2022-12-03T13:43:38.697Z,43.88
2022-12-03T13:44:48.734Z,46.85
2022-12-03T13:45:52.868Z,49.35
2022-12-03T13:46:54.688Z,45.03
2022-12-03T13:48:00.400Z,46.17
2022-12-03T13:49:02.452Z,43.72
2022-12-03T13:50:30.742Z,42.53
2022-12-03T13:51:33.396Z,44.55
2022-12-03T13:52:35.216Z,45.93
2022-12-03T13:53:38.120Z,43.92
2022-12-03T13:54:40.236Z,48.83
2022-12-03T13:55:47.830Z,38.92